createdAt,value
2019-04-26T00:00:10.195Z,0.00
2019-04-26T00:01:10.013Z,0.00
2019-04-26T00:02:09.953Z,0.00
2019-04-26T00:03:10.309Z,0.00
2019-04-26T00:04:10.264Z,0.00
2019-04-26T00:05:10.214Z,0.00
2019-04-26T00:06:10.245Z,0.00
2019-04-26T00:07:10.421Z,0.00
2019-04-26T00:08:10.388Z,0.00
2019-04-26T00:09:09.567Z,0.00
2019-04-26T00:10:10.372Z,0.00
2019-04-26T00:11:09.646Z,0.00
2019-04-26T00:12:10.747Z,0.00
2019-04-26T00:13:09.820Z,0.00
2019-04-26T00:14:09.886Z,0.00
2019-04-26T00:15:10.087Z,0.00
2019-04-26T00:16:10.145Z,0.00
2019-04-26T00:17:09.258Z,0.00
2019-04-26T00:18:10.252Z,0.00
2019-04-26T00:19:09.423Z,0.00
2019-04-26T00:20:09.208Z,0.00
2019-04-26T00:21:09.627Z,0.00
2019-04-26T00:22:09.202Z,0.00
2019-04-26T00:23:10.629Z,0.00
2019-04-26T00:24:09.161Z,0.00
2019-04-26T00:25:09.955Z,0.00
2019-04-26T00:26:09.162Z,0.00
2019-04-26T00:27:09.170Z,0.00
2019-04-26T00:28:09.113Z,0.00
2019-04-26T00:29:09.098Z,0.00
2019-04-26T00:30:09.098Z,0.00
2019-04-26T00:31:09.076Z,0.00
2019-04-26T00:32:09.098Z,0.00
2019-04-26T00:33:09.074Z,0.00
2019-04-26T00:34:09.053Z,0.00
2019-04-26T00:35:09.033Z,0.00
2019-04-26T00:36:09.021Z,0.00
2019-04-26T00:37:09.043Z,0.00
2019-04-26T00:38:09.009Z,0.00
2019-04-26T00:39:09.028Z,0.00
2019-04-26T00:40:08.991Z,0.00
2019-04-26T00:41:08.975Z,0.00
2019-04-26T00:42:08.990Z,0.00
2019-04-26T00:43:08.953Z,0.00
2019-04-26T00:44:08.934Z,0.00
2019-04-26T00:45:08.925Z,0.00
2019-04-26T00:46:08.914Z,0.00
2019-04-26T00:47:08.922Z,0.00
2019-04-26T00:48:08.899Z,0.00
2019-04-26T00:49:08.886Z,0.00
2019-04-26T00:50:08.866Z,0.00
2019-04-26T00:51:08.865Z,0.00
2019-04-26T00:52:08.865Z,0.00
2019-04-26T00:53:08.839Z,0.00
2019-04-26T00:54:08.824Z,0.00
2019-04-26T00:55:08.809Z,0.00
2019-04-26T00:56:08.804Z,0.00
2019-04-26T00:57:08.865Z,0.00
2019-04-26T00:58:08.777Z,0.00
2019-04-26T00:59:08.764Z,0.00
2019-04-26T01:00:08.757Z,0.00
2019-04-26T01:01:08.752Z,0.00
2019-04-26T01:02:08.741Z,0.00
2019-04-26T01:04:19.070Z,0.00
2019-04-26T01:05:20.884Z,0.00
2019-04-26T01:06:20.912Z,0.00
2019-04-26T01:07:21.089Z,0.00
2019-04-26T01:08:20.012Z,0.00
2019-04-26T01:09:19.978Z,0.00
2019-04-26T01:10:19.961Z,0.00
2019-04-26T01:11:19.955Z,0.00
2019-04-26T01:12:19.940Z,0.00
2019-04-26T01:13:19.979Z,0.00
2019-04-26T01:14:20.030Z,0.00
2019-04-26T01:15:21.672Z,0.00
2019-04-26T01:16:20.205Z,0.00
2019-04-26T01:17:20.351Z,0.00
2019-04-26T01:18:20.211Z,0.00
2019-04-26T01:19:20.311Z,0.00
2019-04-26T01:20:20.388Z,0.00
2019-04-26T01:21:20.589Z,0.00
2019-04-26T01:22:19.840Z,0.00
2019-04-26T01:23:20.846Z,0.00
2019-04-26T01:24:19.822Z,0.00
2019-04-26T01:25:19.809Z,0.00
2019-04-26T01:26:19.799Z,0.00
2019-04-26T01:27:19.789Z,0.00
2019-04-26T01:28:19.783Z,0.00
2019-04-26T01:29:19.754Z,0.00
2019-04-26T01:30:19.765Z,0.00
2019-04-26T01:31:19.987Z,0.00
2019-04-26T01:32:20.322Z,0.00
2019-04-26T01:33:20.110Z,0.00
2019-04-26T01:34:20.346Z,0.00
2019-04-26T01:35:20.344Z,0.00
2019-04-26T01:36:20.544Z,0.00
2019-04-26T01:37:20.599Z,0.00
2019-04-26T01:38:20.720Z,0.00
2019-04-26T01:39:20.946Z,0.00
2019-04-26T01:40:20.667Z,0.00
2019-04-26T01:41:19.803Z,0.00
2019-04-26T01:42:20.886Z,0.00
2019-04-26T01:43:20.228Z,0.00
2019-04-26T01:44:20.202Z,0.00
2019-04-26T01:45:20.408Z,0.00
2019-04-26T01:46:20.638Z,0.00
2019-04-26T01:47:19.937Z,0.00
2019-04-26T01:48:19.568Z,0.00
2019-04-26T01:49:19.744Z,0.00
2019-04-26T01:50:19.529Z,0.00
2019-04-26T01:51:21.124Z,0.00
2019-04-26T01:52:19.519Z,0.00
2019-04-26T01:53:21.052Z,0.00
2019-04-26T01:54:19.490Z,0.00
2019-04-26T01:55:21.480Z,0.00
2019-04-26T01:56:19.529Z,0.00
2019-04-26T01:57:19.460Z,0.00
2019-04-26T01:58:19.459Z,0.00
2019-04-26T01:59:19.450Z,0.00
2019-04-26T02:00:19.417Z,0.00
2019-04-26T02:01:19.412Z,0.00
2019-04-26T02:02:19.391Z,0.00
2019-04-26T02:03:19.383Z,0.00
2019-04-26T02:04:19.391Z,0.00
2019-04-26T02:05:19.361Z,0.00
2019-04-26T02:06:25.294Z,0.00
2019-04-26T02:07:19.361Z,0.00
2019-04-26T02:08:19.337Z,0.00
2019-04-26T02:09:19.342Z,0.00
2019-04-26T02:10:19.305Z,0.00
2019-04-26T02:11:19.314Z,0.00
2019-04-26T02:12:19.316Z,0.00
2019-04-26T02:13:19.278Z,0.00
2019-04-26T02:14:19.283Z,0.00
2019-04-26T02:15:19.261Z,0.00
2019-04-26T02:16:19.246Z,0.00
2019-04-26T02:17:19.233Z,0.00
2019-04-26T02:18:19.236Z,0.00
2019-04-26T02:19:19.233Z,0.00
2019-04-26T02:20:19.215Z,0.00
2019-04-26T02:21:19.190Z,0.00
2019-04-26T02:22:19.184Z,0.00
2019-04-26T02:23:19.174Z,0.00
2019-04-26T02:24:19.176Z,0.00
2019-04-26T02:25:19.153Z,0.00
2019-04-26T02:26:19.141Z,0.00
2019-04-26T02:27:19.120Z,0.00
2019-04-26T02:28:19.110Z,0.00
2019-04-26T02:29:19.115Z,0.00
2019-04-26T02:30:19.100Z,0.00
2019-04-26T02:31:19.088Z,0.00
2019-04-26T02:32:19.067Z,0.00
2019-04-26T02:33:19.053Z,0.00
2019-04-26T02:34:19.072Z,0.00
2019-04-26T02:35:19.041Z,0.00
2019-04-26T02:36:19.033Z,0.00
2019-04-26T02:37:19.009Z,0.00
2019-04-26T02:38:19.000Z,0.00
2019-04-26T02:39:19.006Z,0.00
2019-04-26T02:40:18.982Z,0.00
2019-04-26T02:41:18.965Z,0.00
2019-04-26T02:42:18.968Z,0.00
2019-04-26T02:43:18.948Z,0.00
2019-04-26T02:44:21.849Z,0.00
2019-04-26T02:45:18.952Z,0.00
2019-04-26T02:46:18.918Z,0.00
2019-04-26T02:47:18.905Z,0.00
2019-04-26T02:48:18.999Z,0.00
2019-04-26T02:49:18.879Z,0.00
2019-04-26T02:50:18.900Z,0.00
2019-04-26T02:51:18.923Z,0.00
2019-04-26T02:52:18.853Z,0.00
2019-04-26T02:53:18.849Z,0.00
2019-04-26T02:54:18.834Z,0.00
2019-04-26T02:55:18.835Z,0.00
2019-04-26T02:56:18.807Z,0.00
2019-04-26T02:57:18.790Z,0.00
2019-04-26T02:58:18.785Z,0.00
2019-04-26T02:59:18.774Z,0.00
2019-04-26T03:00:18.793Z,0.00
2019-04-26T03:01:18.757Z,0.00
2019-04-26T03:02:18.737Z,0.00
2019-04-26T03:03:18.741Z,0.00
2019-04-26T03:05:28.477Z,0.00
2019-04-26T03:06:30.203Z,0.00
2019-04-26T03:07:31.462Z,0.00
2019-04-26T03:08:29.858Z,0.00
2019-04-26T03:09:31.234Z,0.00
2019-04-26T03:10:31.779Z,0.00
2019-04-26T03:11:30.547Z,0.00
2019-04-26T03:12:28.845Z,0.00
2019-04-26T03:13:28.882Z,0.00
2019-04-26T03:14:28.835Z,0.00
2019-04-26T03:15:31.471Z,0.00
2019-04-26T03:16:28.810Z,0.00
2019-04-26T03:17:30.736Z,0.00
2019-04-26T03:18:28.794Z,0.00
2019-04-26T03:19:31.472Z,0.00
2019-04-26T03:20:28.779Z,0.00
2019-04-26T03:21:28.745Z,0.00
2019-04-26T03:22:28.765Z,0.00
2019-04-26T03:23:41.579Z,0.00
2019-04-26T03:24:28.717Z,0.00
2019-04-26T03:25:28.732Z,0.00
2019-04-26T03:26:28.712Z,0.00
2019-04-26T03:27:28.697Z,0.00
2019-04-26T03:28:28.681Z,0.00
2019-04-26T03:29:28.662Z,0.00
2019-04-26T03:30:28.698Z,0.00
2019-04-26T03:31:28.652Z,0.00
2019-04-26T03:32:28.721Z,0.00
2019-04-26T03:33:28.857Z,0.00
2019-04-26T03:34:28.615Z,4.00
2019-04-26T03:35:28.628Z,4.00
2019-04-26T03:36:28.600Z,0.00
2019-04-26T03:37:28.580Z,0.00
2019-04-26T03:38:28.560Z,4.00
2019-04-26T03:39:28.588Z,4.00
2019-04-26T03:40:28.546Z,4.00
2019-04-26T03:41:28.557Z,4.00
2019-04-26T03:42:28.529Z,4.00
2019-04-26T03:43:28.518Z,4.00
2019-04-26T03:44:28.500Z,4.00
2019-04-26T03:45:28.480Z,8.00
2019-04-26T03:46:28.495Z,8.00
2019-04-26T03:47:28.487Z,12.00
2019-04-26T03:48:28.458Z,12.00
2019-04-26T03:49:28.434Z,12.00
2019-04-26T03:50:28.440Z,16.00
2019-04-26T03:51:28.437Z,16.00
2019-04-26T03:52:28.405Z,16.00
2019-04-26T03:53:28.401Z,16.00
2019-04-26T03:54:28.406Z,20.00
2019-04-26T03:55:28.395Z,20.00
2019-04-26T03:56:28.373Z,24.00
2019-04-26T03:57:28.355Z,28.00
2019-04-26T03:58:28.360Z,32.00
2019-04-26T03:59:28.321Z,32.00
2019-04-26T04:00:28.413Z,40.00
2019-04-26T04:01:28.320Z,40.00
2019-04-26T04:02:28.310Z,48.00
2019-04-26T04:03:28.284Z,52.00
2019-04-26T04:04:28.282Z,56.00
2019-04-26T04:05:28.263Z,60.00
2019-04-26T04:06:28.274Z,64.00
2019-04-26T04:07:36.672Z,72.00
2019-04-26T04:08:28.227Z,84.00
2019-04-26T04:09:28.230Z,100.00
2019-04-26T04:10:28.217Z,116.00
2019-04-26T04:11:28.284Z,136.00
2019-04-26T04:12:28.212Z,156.00
2019-04-26T04:13:28.185Z,176.00
2019-04-26T04:14:28.258Z,204.00
2019-04-26T04:15:28.162Z,220.00
2019-04-26T04:16:28.169Z,224.00
2019-04-26T04:17:28.133Z,232.00
2019-04-26T04:18:28.130Z,236.00
2019-04-26T04:19:28.125Z,240.00
2019-04-26T04:20:28.103Z,244.00
2019-04-26T04:21:28.114Z,252.00
2019-04-26T04:22:28.069Z,260.00
2019-04-26T04:23:28.071Z,280.00
2019-04-26T04:24:28.047Z,308.00
2019-04-26T04:25:28.044Z,356.00
2019-04-26T04:26:28.063Z,416.00
2019-04-26T04:27:28.027Z,476.00
2019-04-26T04:28:28.002Z,536.00
2019-04-26T04:29:40.298Z,588.00
2019-04-26T04:30:27.993Z,632.00
2019-04-26T04:31:28.029Z,676.00
2019-04-26T04:32:27.960Z,720.00
2019-04-26T04:33:27.962Z,752.00
2019-04-26T04:34:27.948Z,772.00
2019-04-26T04:35:27.936Z,780.00
2019-04-26T04:36:27.941Z,768.00
2019-04-26T04:37:27.939Z,744.00
2019-04-26T04:38:27.907Z,732.00
2019-04-26T04:39:27.898Z,732.00
2019-04-26T04:40:27.885Z,736.00
2019-04-26T04:41:27.878Z,716.00
2019-04-26T04:42:28.212Z,712.00
2019-04-26T04:43:27.984Z,740.00
2019-04-26T04:44:27.826Z,784.00
2019-04-26T04:45:27.827Z,820.00
2019-04-26T04:46:27.809Z,832.00
2019-04-26T04:47:31.068Z,836.00
2019-04-26T04:48:27.784Z,820.00
2019-04-26T04:49:27.788Z,820.00
2019-04-26T04:50:27.794Z,824.00
2019-04-26T04:51:27.753Z,824.00
2019-04-26T04:52:27.771Z,836.00
2019-04-26T04:53:27.732Z,856.00
2019-04-26T04:54:27.733Z,876.00
2019-04-26T04:55:27.713Z,900.00
2019-04-26T04:56:27.713Z,924.00
2019-04-26T04:57:27.704Z,952.00
2019-04-26T04:58:27.677Z,988.00
2019-04-26T04:59:27.672Z,1020.00
2019-04-26T05:00:27.654Z,1056.00
2019-04-26T05:01:27.647Z,1088.00
2019-04-26T05:02:27.656Z,1112.00
2019-04-26T05:03:27.628Z,1128.00
2019-04-26T05:04:27.616Z,1132.00
2019-04-26T05:06:37.821Z,1148.00
2019-04-26T05:07:38.788Z,1160.00
2019-04-26T05:08:38.757Z,1184.00
2019-04-26T05:09:38.755Z,1204.00
2019-04-26T05:10:38.740Z,1196.00
2019-04-26T05:11:38.736Z,1196.00
2019-04-26T05:12:38.740Z,1204.00
2019-04-26T05:13:38.705Z,1240.00
2019-04-26T05:14:38.704Z,1284.00
2019-04-26T05:15:38.689Z,1340.00
2019-04-26T05:16:38.678Z,1396.00
2019-04-26T05:17:39.055Z,1456.00
2019-04-26T05:18:38.665Z,1512.00
2019-04-26T05:19:38.655Z,1560.00
2019-04-26T05:20:38.634Z,1604.00
2019-04-26T05:21:38.626Z,1640.00
2019-04-26T05:22:38.617Z,1684.00
2019-04-26T05:23:38.679Z,1720.00
2019-04-26T05:24:38.585Z,1764.00
2019-04-26T05:25:40.291Z,1816.00
2019-04-26T05:26:38.575Z,1860.00
2019-04-26T05:27:38.561Z,1904.00
2019-04-26T05:28:38.576Z,1960.00
2019-04-26T05:29:38.536Z,2012.00
2019-04-26T05:30:38.526Z,2068.00
2019-04-26T05:31:38.514Z,2104.00
2019-04-26T05:32:38.508Z,2136.00
2019-04-26T05:33:38.522Z,2148.00
2019-04-26T05:34:38.499Z,2140.00
2019-04-26T05:35:38.482Z,2136.00
2019-04-26T05:36:38.481Z,2144.00
2019-04-26T05:37:38.443Z,2160.00
2019-04-26T05:38:38.450Z,2192.00
2019-04-26T05:39:38.434Z,2232.00
2019-04-26T05:40:38.431Z,2296.00
2019-04-26T05:41:38.406Z,2412.00
2019-04-26T05:42:38.396Z,2572.00
2019-04-26T05:43:38.400Z,2736.00
2019-04-26T05:44:38.377Z,2860.00
2019-04-26T05:45:40.561Z,2928.00
2019-04-26T05:46:38.356Z,2952.00
2019-04-26T05:47:38.349Z,2976.00
2019-04-26T05:48:38.347Z,3036.00
2019-04-26T05:49:38.333Z,3116.00
2019-04-26T05:50:38.307Z,3156.00
2019-04-26T05:51:38.299Z,3140.00
2019-04-26T05:52:38.295Z,3088.00
2019-04-26T05:53:38.303Z,2992.00
2019-04-26T05:54:38.269Z,2912.00
2019-04-26T05:55:38.262Z,2860.00
2019-04-26T05:56:38.259Z,2824.00
2019-04-26T05:57:38.229Z,2804.00
2019-04-26T05:58:38.235Z,2824.00
2019-04-26T05:59:38.227Z,2864.00
2019-04-26T06:00:38.208Z,2884.00
2019-04-26T06:01:38.190Z,2880.00
2019-04-26T06:02:38.174Z,2840.00
2019-04-26T06:03:38.163Z,2788.00
2019-04-26T06:04:38.173Z,2768.00
2019-04-26T06:05:38.150Z,2792.00
2019-04-26T06:06:38.139Z,2820.00
2019-04-26T06:07:38.118Z,2860.00
2019-04-26T06:08:38.115Z,2908.00
2019-04-26T06:09:38.117Z,2948.00
2019-04-26T06:10:38.100Z,2928.00
2019-04-26T06:11:38.081Z,2848.00
2019-04-26T06:12:38.077Z,2752.00
2019-04-26T06:13:38.051Z,2660.00
2019-04-26T06:14:38.066Z,2588.00
2019-04-26T06:15:38.037Z,2552.00
2019-04-26T06:16:38.021Z,2524.00
2019-04-26T06:17:38.009Z,2492.00
2019-04-26T06:18:38.011Z,2416.00
2019-04-26T06:19:38.015Z,2280.00
2019-04-26T06:20:37.986Z,2148.00
2019-04-26T06:21:37.964Z,1996.00
2019-04-26T06:22:37.961Z,1844.00
2019-04-26T06:23:37.957Z,1744.00
2019-04-26T06:24:37.946Z,1692.00
2019-04-26T06:25:37.939Z,1684.00
2019-04-26T06:26:37.916Z,1696.00
2019-04-26T06:27:37.904Z,1720.00
2019-04-26T06:28:37.902Z,1768.00
2019-04-26T06:29:37.890Z,1812.00
2019-04-26T06:30:45.267Z,1872.00
2019-04-26T06:31:37.859Z,1932.00
2019-04-26T06:32:37.945Z,1972.00
2019-04-26T06:33:37.847Z,1988.00
2019-04-26T06:34:37.821Z,2060.00
2019-04-26T06:35:37.841Z,2100.00
2019-04-26T06:36:37.815Z,2140.00
2019-04-26T06:37:37.802Z,2164.00
2019-04-26T06:38:43.757Z,2180.00
2019-04-26T06:39:37.814Z,2180.00
2019-04-26T06:40:41.996Z,2156.00
2019-04-26T06:41:37.774Z,2144.00
2019-04-26T06:42:37.743Z,2120.00
2019-04-26T06:43:37.742Z,2100.00
2019-04-26T06:44:37.734Z,2096.00
2019-04-26T06:45:37.720Z,2152.00
2019-04-26T06:46:38.547Z,2196.00
2019-04-26T06:47:37.686Z,2216.00
2019-04-26T06:48:37.675Z,2184.00
2019-04-26T06:49:37.662Z,2132.00
2019-04-26T06:50:37.684Z,2068.00
2019-04-26T06:51:37.652Z,2012.00
2019-04-26T06:52:37.660Z,1968.00
2019-04-26T06:53:37.627Z,1924.00
2019-04-26T06:54:37.618Z,1904.00
2019-04-26T06:55:37.612Z,1904.00
2019-04-26T06:56:37.592Z,1920.00
2019-04-26T06:57:37.576Z,1964.00
2019-04-26T06:58:37.590Z,2008.00
2019-04-26T06:59:37.557Z,2032.00
2019-04-26T07:00:37.564Z,2032.00
2019-04-26T07:01:37.544Z,2052.00
2019-04-26T07:02:37.521Z,2096.00
2019-04-26T07:03:37.523Z,2156.00
2019-04-26T07:04:37.504Z,2196.00
2019-04-26T07:05:37.516Z,2212.00
2019-04-26T07:07:46.667Z,2296.00
2019-04-26T07:08:57.070Z,2264.00
2019-04-26T07:09:47.647Z,2224.00
2019-04-26T07:10:47.666Z,2180.00
2019-04-26T07:11:47.627Z,2104.00
2019-04-26T07:12:47.613Z,2064.00
2019-04-26T07:13:47.598Z,2052.00
2019-04-26T07:14:47.595Z,2020.00
2019-04-26T07:15:47.615Z,2052.00
2019-04-26T07:16:47.575Z,2116.00
2019-04-26T07:17:47.558Z,2212.00
2019-04-26T07:18:47.548Z,2348.00
2019-04-26T07:19:47.540Z,2452.00
2019-04-26T07:20:47.539Z,2492.00
2019-04-26T07:21:47.523Z,2476.00
2019-04-26T07:22:47.495Z,2484.00
2019-04-26T07:23:47.486Z,2456.00
2019-04-26T07:24:47.480Z,2396.00
2019-04-26T07:25:47.458Z,2356.00
2019-04-26T07:26:47.469Z,2296.00
2019-04-26T07:27:47.459Z,2288.00
2019-04-26T07:28:47.427Z,2280.00
2019-04-26T07:29:47.429Z,2304.00
2019-04-26T07:30:47.405Z,2400.00
2019-04-26T07:31:47.428Z,2504.00
2019-04-26T07:32:47.399Z,2584.00
2019-04-26T07:33:47.386Z,2580.00
2019-04-26T07:34:47.366Z,2520.00
2019-04-26T07:35:47.361Z,2452.00
2019-04-26T07:36:47.358Z,2416.00
2019-04-26T07:37:47.344Z,2392.00
2019-04-26T07:38:47.324Z,2340.00
2019-04-26T07:39:47.314Z,2288.00
2019-04-26T07:40:47.302Z,2272.00
2019-04-26T07:41:47.310Z,2268.00
2019-04-26T07:42:47.295Z,2336.00
2019-04-26T07:43:47.272Z,2428.00
2019-04-26T07:44:47.254Z,2472.00
2019-04-26T07:45:47.242Z,2456.00
2019-04-26T07:46:47.254Z,2404.00
2019-04-26T07:47:47.255Z,2296.00
2019-04-26T07:48:47.225Z,2140.00
2019-04-26T07:49:47.202Z,1976.00
2019-04-26T07:50:47.213Z,1852.00
2019-04-26T07:51:47.222Z,1756.00
2019-04-26T07:52:47.176Z,1688.00
2019-04-26T07:53:47.164Z,1676.00
2019-04-26T07:54:47.153Z,1696.00
2019-04-26T07:55:47.145Z,1732.00
2019-04-26T07:56:47.138Z,1756.00
2019-04-26T07:57:47.130Z,1756.00
2019-04-26T07:58:47.101Z,1720.00
2019-04-26T07:59:47.105Z,1644.00
2019-04-26T08:00:47.085Z,1532.00
2019-04-26T08:01:47.080Z,1404.00
2019-04-26T08:02:47.076Z,1268.00
2019-04-26T08:03:47.051Z,1136.00
2019-04-26T08:04:47.056Z,1024.00
2019-04-26T08:05:47.051Z,932.00
2019-04-26T08:06:47.015Z,864.00
2019-04-26T08:07:47.033Z,820.00
2019-04-26T08:08:47.011Z,788.00
2019-04-26T08:09:59.143Z,768.00
2019-04-26T08:10:46.972Z,768.00
2019-04-26T08:11:46.972Z,788.00
2019-04-26T08:12:46.979Z,812.00
2019-04-26T08:13:46.937Z,856.00
2019-04-26T08:14:46.949Z,896.00
2019-04-26T08:15:46.920Z,948.00
2019-04-26T08:16:46.910Z,1020.00
2019-04-26T08:17:46.913Z,1108.00
2019-04-26T08:18:46.898Z,1224.00
2019-04-26T08:19:46.873Z,1312.00
2019-04-26T08:20:48.351Z,1428.00
2019-04-26T08:21:48.196Z,1556.00
2019-04-26T08:22:46.869Z,1672.00
2019-04-26T08:23:46.849Z,1792.00
2019-04-26T08:24:46.842Z,1900.00
2019-04-26T08:25:46.820Z,1968.00
2019-04-26T08:26:46.834Z,1988.00
2019-04-26T08:27:47.093Z,2032.00
2019-04-26T08:28:46.784Z,2068.00
2019-04-26T08:29:46.773Z,2108.00
2019-04-26T08:30:46.770Z,2148.00
2019-04-26T08:31:46.741Z,2212.00
2019-04-26T08:32:46.836Z,2264.00
2019-04-26T08:33:48.856Z,2336.00
2019-04-26T08:34:46.715Z,2464.00
2019-04-26T08:35:48.952Z,2652.00
2019-04-26T08:36:46.698Z,2836.00
2019-04-26T08:37:46.695Z,2960.00
2019-04-26T08:38:48.766Z,2900.00
2019-04-26T08:39:50.433Z,2740.00
2019-04-26T08:40:46.663Z,2512.00
2019-04-26T08:41:46.643Z,2308.00
2019-04-26T08:42:46.640Z,2244.00
2019-04-26T08:43:46.611Z,2332.00
2019-04-26T08:44:46.605Z,2476.00
2019-04-26T08:46:01.881Z,2680.00
2019-04-26T08:46:46.594Z,2832.00
2019-04-26T08:47:50.273Z,2912.00
2019-04-26T08:48:46.578Z,2968.00
2019-04-26T08:49:46.553Z,3000.00
2019-04-26T08:50:47.021Z,3020.00
2019-04-26T08:51:46.580Z,3012.00
2019-04-26T08:52:46.540Z,2948.00
2019-04-26T08:53:46.546Z,2808.00
2019-04-26T08:54:46.513Z,2640.00
2019-04-26T08:55:46.498Z,2468.00
2019-04-26T08:56:46.465Z,2296.00
2019-04-26T08:57:46.474Z,2196.00
2019-04-26T08:58:46.478Z,2148.00
2019-04-26T08:59:46.452Z,2176.00
2019-04-26T09:00:46.430Z,2280.00
2019-04-26T09:01:46.623Z,2440.00
2019-04-26T09:02:46.415Z,2620.00
2019-04-26T09:03:46.412Z,2764.00
2019-04-26T09:04:46.397Z,2876.00
2019-04-26T09:05:49.950Z,2928.00
2019-04-26T09:06:46.384Z,2936.00
2019-04-26T09:08:55.867Z,2800.00
2019-04-26T09:10:01.158Z,2764.00
2019-04-26T09:10:56.818Z,2692.00
2019-04-26T09:11:59.929Z,2636.00
2019-04-26T09:12:56.795Z,2632.00
2019-04-26T09:13:56.805Z,2640.00
2019-04-26T09:14:56.782Z,2660.00
2019-04-26T09:15:56.847Z,2700.00
2019-04-26T09:16:56.759Z,2704.00
2019-04-26T09:17:56.753Z,2744.00
2019-04-26T09:18:59.551Z,2808.00
2019-04-26T09:19:58.210Z,2876.00
2019-04-26T09:20:56.712Z,2948.00
2019-04-26T09:21:59.051Z,2992.00
2019-04-26T09:23:03.739Z,3020.00
2019-04-26T09:23:56.690Z,3108.00
2019-04-26T09:24:59.456Z,3304.00
2019-04-26T09:26:00.345Z,3532.00
2019-04-26T09:26:56.655Z,3808.00
2019-04-26T09:27:58.862Z,4000.00
2019-04-26T09:28:57.557Z,4160.00
2019-04-26T09:29:56.637Z,4256.00
2019-04-26T09:30:56.607Z,4272.00
2019-04-26T09:31:56.601Z,4272.00
2019-04-26T09:32:58.249Z,4336.00
2019-04-26T09:33:56.569Z,4688.00
2019-04-26T09:34:56.823Z,5088.00
2019-04-26T09:35:56.547Z,5424.00
2019-04-26T09:36:56.538Z,5692.00
2019-04-26T09:37:56.527Z,5692.00
2019-04-26T09:38:56.516Z,5536.00
2019-04-26T09:39:56.517Z,5892.00
2019-04-26T09:40:57.307Z,6556.00
2019-04-26T09:41:56.470Z,6916.00
2019-04-26T09:42:56.554Z,6844.00
2019-04-26T09:43:58.881Z,6432.00
2019-04-26T09:44:56.972Z,6240.00
2019-04-26T09:45:56.426Z,6020.00
2019-04-26T09:46:56.415Z,5808.00
2019-04-26T09:47:56.425Z,5948.00
2019-04-26T09:48:56.406Z,6024.00
2019-04-26T09:49:56.411Z,5888.00
2019-04-26T09:50:56.374Z,6308.00
2019-04-26T09:51:56.374Z,6848.00
2019-04-26T09:52:58.243Z,7292.00
2019-04-26T09:53:56.352Z,7696.00
2019-04-26T09:54:56.383Z,8156.00
2019-04-26T09:55:56.350Z,8584.00
2019-04-26T09:56:56.334Z,9048.00
2019-04-26T09:57:57.093Z,9436.00
2019-04-26T09:58:56.305Z,9632.00
2019-04-26T09:59:56.309Z,9608.00
2019-04-26T10:00:56.284Z,9272.00
2019-04-26T10:01:59.393Z,8708.00
2019-04-26T10:02:56.255Z,8204.00
2019-04-26T10:03:56.244Z,7916.00
2019-04-26T10:04:56.269Z,7748.00
2019-04-26T10:05:57.103Z,7688.00
2019-04-26T10:06:59.436Z,7676.00
2019-04-26T10:07:56.202Z,7800.00
2019-04-26T10:08:56.190Z,7784.00
2019-04-26T10:10:00.656Z,7576.00
2019-04-26T10:10:56.174Z,8108.00
2019-04-26T10:11:56.156Z,8932.00
2019-04-26T10:12:56.141Z,9180.00
2019-04-26T10:13:56.158Z,8876.00
2019-04-26T10:14:56.124Z,9608.00
2019-04-26T10:15:58.079Z,10448.00
2019-04-26T10:16:56.116Z,10800.00
2019-04-26T10:17:56.108Z,10688.00
2019-04-26T10:18:58.309Z,10252.00
2019-04-26T10:19:56.072Z,9664.00
2019-04-26T10:20:56.074Z,8968.00
2019-04-26T10:21:56.042Z,8036.00
2019-04-26T10:22:56.044Z,7844.00
2019-04-26T10:23:56.019Z,8068.00
2019-04-26T10:24:56.025Z,8040.00
2019-04-26T10:25:56.032Z,7824.00
2019-04-26T10:26:59.211Z,7720.00
2019-04-26T10:27:55.984Z,7868.00
2019-04-26T10:28:55.964Z,7872.00
2019-04-26T10:30:04.695Z,7548.00
2019-04-26T10:30:55.967Z,7044.00
2019-04-26T10:31:55.930Z,6732.00
2019-04-26T10:32:58.358Z,6552.00
2019-04-26T10:33:55.922Z,6436.00
2019-04-26T10:34:55.903Z,6640.00
2019-04-26T10:35:56.813Z,7508.00
2019-04-26T10:36:57.123Z,8320.00
2019-04-26T10:37:55.866Z,8468.00
2019-04-26T10:38:58.410Z,8332.00
2019-04-26T10:39:55.844Z,8068.00
2019-04-26T10:40:56.325Z,8288.00
2019-04-26T10:41:55.819Z,8948.00
2019-04-26T10:42:55.816Z,9472.00
2019-04-26T10:43:55.797Z,9540.00
2019-04-26T10:44:55.804Z,9184.00
2019-04-26T10:45:55.815Z,8708.00
2019-04-26T10:46:55.976Z,8268.00
2019-04-26T10:47:55.756Z,7556.00
2019-04-26T10:49:02.668Z,6636.00
2019-04-26T10:49:58.179Z,5640.00
2019-04-26T10:50:55.754Z,4784.00
2019-04-26T10:51:55.747Z,4076.00
2019-04-26T10:52:55.800Z,3468.00
2019-04-26T10:53:55.684Z,2936.00
2019-04-26T10:54:55.671Z,2648.00
2019-04-26T10:55:55.673Z,2564.00
2019-04-26T10:56:55.690Z,2644.00
2019-04-26T10:57:55.675Z,3068.00
2019-04-26T10:58:55.637Z,3620.00
2019-04-26T10:59:55.625Z,4280.00
2019-04-26T11:00:55.620Z,5112.00
2019-04-26T11:01:55.642Z,6244.00
2019-04-26T11:02:55.587Z,7468.00
2019-04-26T11:03:55.579Z,8784.00
2019-04-26T11:04:55.573Z,10152.00
2019-04-26T11:05:55.563Z,11056.00
2019-04-26T11:06:58.151Z,11124.00
2019-04-26T11:07:55.558Z,10392.00
2019-04-26T11:10:04.766Z,7864.00
2019-04-26T11:11:05.740Z,6804.00
2019-04-26T11:12:05.738Z,6272.00
2019-04-26T11:13:05.735Z,6152.00
2019-04-26T11:14:05.710Z,6352.00
2019-04-26T11:15:06.277Z,6692.00
2019-04-26T11:16:07.229Z,7056.00
2019-04-26T11:17:05.685Z,7280.00
2019-04-26T11:18:05.663Z,7192.00
2019-04-26T11:19:05.650Z,6820.00
2019-04-26T11:20:06.300Z,6300.00
2019-04-26T11:21:05.635Z,5756.00
2019-04-26T11:22:05.659Z,5256.00
2019-04-26T11:23:08.241Z,4892.00
2019-04-26T11:24:05.600Z,4780.00
2019-04-26T11:25:05.589Z,4816.00
2019-04-26T11:26:05.650Z,4924.00
2019-04-26T11:27:09.658Z,5100.00
2019-04-26T11:28:05.555Z,5384.00
2019-04-26T11:29:05.532Z,5756.00
2019-04-26T11:30:11.880Z,6160.00
2019-04-26T11:31:05.558Z,6388.00
2019-04-26T11:32:05.564Z,6516.00
2019-04-26T11:33:07.179Z,6608.00
2019-04-26T11:34:05.849Z,6600.00
2019-04-26T11:35:05.486Z,6676.00
2019-04-26T11:36:07.356Z,6800.00
2019-04-26T11:37:05.484Z,6896.00
2019-04-26T11:38:05.441Z,6920.00
2019-04-26T11:39:07.308Z,7072.00
2019-04-26T11:40:05.430Z,7204.00
2019-04-26T11:41:06.826Z,7156.00
2019-04-26T11:42:08.072Z,7012.00
2019-04-26T11:43:05.386Z,6912.00
2019-04-26T11:44:05.380Z,6828.00
2019-04-26T11:45:06.327Z,6664.00
2019-04-26T11:46:05.477Z,6472.00
2019-04-26T11:47:07.768Z,6344.00
2019-04-26T11:48:05.342Z,6260.00
2019-04-26T11:49:07.185Z,6272.00
2019-04-26T11:50:05.356Z,6336.00
2019-04-26T11:51:05.296Z,6432.00
2019-04-26T11:52:05.318Z,6504.00
2019-04-26T11:53:06.139Z,6572.00
2019-04-26T11:54:05.267Z,6592.00
2019-04-26T11:55:05.266Z,6564.00
2019-04-26T11:56:05.819Z,6516.00
2019-04-26T11:57:08.152Z,6484.00
2019-04-26T11:58:05.239Z,6584.00
2019-04-26T11:59:05.210Z,6904.00
2019-04-26T12:00:06.535Z,7332.00
2019-04-26T12:01:05.227Z,7740.00
2019-04-26T12:02:05.197Z,8012.00
2019-04-26T12:03:05.228Z,8080.00
2019-04-26T12:04:07.215Z,8072.00
2019-04-26T12:05:05.144Z,8100.00
2019-04-26T12:06:05.137Z,8176.00
2019-04-26T12:07:05.122Z,8252.00
2019-04-26T12:08:05.158Z,8312.00
2019-04-26T12:09:05.144Z,8360.00
2019-04-26T12:10:05.797Z,8368.00
2019-04-26T12:11:05.085Z,8396.00
2019-04-26T12:12:08.835Z,8472.00
2019-04-26T12:13:06.205Z,8704.00
2019-04-26T12:14:05.096Z,9092.00
2019-04-26T12:15:08.571Z,9572.00
2019-04-26T12:16:05.038Z,10100.00
2019-04-26T12:17:05.019Z,10340.00
2019-04-26T12:18:05.714Z,10104.00
2019-04-26T12:19:04.995Z,9488.00
2019-04-26T12:20:04.986Z,8668.00
2019-04-26T12:21:04.977Z,8048.00
2019-04-26T12:22:08.356Z,7556.00
2019-04-26T12:23:04.968Z,7344.00
2019-04-26T12:24:04.949Z,7244.00
2019-04-26T12:25:07.200Z,7052.00
2019-04-26T12:26:04.937Z,6752.00
2019-04-26T12:27:04.974Z,6296.00
2019-04-26T12:28:05.967Z,5784.00
2019-04-26T12:29:04.890Z,5380.00
2019-04-26T12:30:04.875Z,5016.00
2019-04-26T12:31:04.894Z,4636.00
2019-04-26T12:32:04.846Z,4404.00
2019-04-26T12:33:04.864Z,4560.00
2019-04-26T12:34:04.811Z,4860.00
2019-04-26T12:35:04.820Z,5260.00
2019-04-26T12:36:04.789Z,5580.00